createdAt,value
2022-08-17T00:02:26.424Z,100.00
2022-08-17T00:05:32.616Z,100.00
2022-08-17T00:08:49.747Z,100.00
2022-08-17T00:12:41.924Z,100.00
2022-08-17T00:15:15.161Z,100.00
2022-08-17T00:19:01.034Z,100.00
2022-08-17T00:22:32.499Z,100.00
2022-08-17T00:25:07.362Z,100.00
2022-08-17T00:28:09.587Z,100.00
2022-08-17T00:31:11.649Z,100.00
2022-08-17T00:34:13.427Z,100.00
2022-08-17T00:37:15.340Z,100.00
2022-08-17T00:40:18.211Z,100.00
2022-08-17T00:43:31.029Z,100.00
2022-08-17T00:46:39.313Z,100.00
2022-08-17T00:49:41.122Z,100.00
2022-08-17T00:52:48.595Z,100.00
2022-08-17T00:55:50.809Z,100.00
2022-08-17T00:58:54.352Z,100.00
2022-08-17T01:01:56.069Z,100.00
2022-08-17T01:04:57.816Z,100.00
2022-08-17T01:08:01.038Z,100.00
2022-08-17T01:11:03.166Z,100.00
2022-08-17T01:14:04.946Z,100.00
2022-08-17T01:17:07.473Z,100.00
2022-08-17T01:20:09.202Z,100.00
2022-08-17T01:23:10.976Z,100.00
2022-08-17T01:26:18.556Z,100.00
2022-08-17T01:29:21.774Z,99.89
2022-08-17T01:32:23.623Z,100.00
2022-08-17T01:35:25.536Z,99.49
2022-08-17T01:38:31.663Z,99.26
2022-08-17T01:41:34.258Z,98.76
2022-08-17T01:44:36.063Z,98.33
2022-08-17T01:47:41.835Z,98.39
2022-08-17T01:50:44.626Z,97.93
2022-08-17T01:53:51.903Z,97.40
2022-08-17T01:56:53.741Z,97.22
2022-08-17T01:59:55.535Z,97.03
2022-08-17T02:02:57.337Z,97.42
2022-08-17T02:05:59.037Z,97.16
2022-08-17T02:09:02.498Z,97.47
2022-08-17T02:12:37.991Z,95.82
2022-08-17T02:15:27.463Z,95.51
2022-08-17T02:18:30.216Z,95.21
2022-08-17T02:21:32.421Z,94.94
2022-08-17T02:24:58.812Z,94.75
2022-08-17T02:27:58.474Z,94.58
2022-08-17T02:31:07.895Z,94.49
2022-08-17T02:34:09.771Z,94.39
2022-08-17T02:37:11.796Z,94.04
2022-08-17T02:40:13.520Z,94.03
2022-08-17T02:43:15.700Z,94.09
2022-08-17T02:46:17.366Z,94.07
2022-08-17T02:49:19.139Z,93.62
2022-08-17T02:52:43.302Z,94.07
2022-08-17T02:55:44.655Z,93.20
2022-08-17T02:58:46.451Z,93.96
2022-08-17T03:01:48.297Z,93.52
2022-08-17T03:04:50.099Z,93.63
2022-08-17T03:07:52.405Z,93.92
2022-08-17T03:10:54.099Z,94.08
2022-08-17T03:13:55.973Z,94.32
2022-08-17T03:16:58.050Z,93.77
2022-08-17T03:20:00.045Z,94.37
2022-08-17T03:23:02.852Z,94.83
2022-08-17T03:26:05.127Z,95.06
2022-08-17T03:29:18.890Z,94.39
2022-08-17T03:32:20.846Z,93.89
2022-08-17T03:35:25.710Z,93.23
2022-08-17T03:38:27.839Z,92.63
2022-08-17T03:41:29.619Z,92.41
2022-08-17T03:44:31.395Z,91.20
2022-08-17T03:47:51.598Z,91.27
2022-08-17T03:51:14.768Z,90.39
2022-08-17T03:54:35.273Z,90.13
2022-08-17T03:57:37.134Z,89.71
2022-08-17T04:00:40.480Z,90.22
2022-08-17T04:03:42.220Z,89.21
2022-08-17T04:06:44.503Z,89.03
2022-08-17T04:09:46.603Z,89.28
2022-08-17T04:12:51.446Z,88.29
2022-08-17T04:15:53.890Z,88.08
2022-08-17T04:18:55.703Z,88.74
2022-08-17T04:22:00.206Z,88.63
2022-08-17T04:25:09.850Z,88.33
2022-08-17T04:28:15.674Z,88.53
2022-08-17T04:31:18.171Z,89.24
2022-08-17T04:34:20.469Z,88.74
2022-08-17T04:37:22.150Z,88.42
2022-08-17T04:40:44.363Z,88.95
2022-08-17T04:43:47.973Z,87.64
2022-08-17T04:46:49.667Z,88.12
2022-08-17T04:49:51.375Z,87.18
2022-08-17T04:52:53.059Z,87.26
2022-08-17T04:55:57.235Z,86.75
2022-08-17T04:59:05.836Z,87.72
2022-08-17T05:02:07.530Z,87.07
2022-08-17T05:05:09.381Z,86.31
2022-08-17T05:08:11.159Z,86.29
2022-08-17T05:11:13.611Z,85.35
2022-08-17T05:14:15.502Z,85.10
2022-08-17T05:17:17.168Z,85.32
2022-08-17T05:20:20.985Z,85.15
2022-08-17T05:23:24.227Z,85.39
2022-08-17T05:26:27.718Z,85.28
2022-08-17T05:29:35.498Z,85.21
2022-08-17T05:32:40.409Z,84.68
2022-08-17T05:35:49.177Z,84.70
2022-08-17T05:38:50.851Z,83.65
2022-08-17T05:41:52.659Z,82.85
2022-08-17T05:44:57.856Z,82.97
2022-08-17T05:47:59.547Z,82.76
2022-08-17T05:51:25.437Z,83.17
2022-08-17T05:54:39.653Z,83.04
2022-08-17T05:57:53.524Z,84.19
2022-08-17T06:01:21.082Z,82.13
2022-08-17T06:04:31.925Z,82.12
2022-08-17T06:08:06.487Z,81.56
2022-08-17T06:11:22.884Z,81.48
2022-08-17T06:14:47.522Z,81.75
2022-08-17T06:17:59.245Z,81.87
2022-08-17T06:21:03.863Z,81.69
2022-08-17T06:24:23.922Z,81.24
2022-08-17T06:27:32.810Z,81.93
2022-08-17T06:30:59.366Z,81.85
2022-08-17T06:34:04.601Z,82.38
2022-08-17T06:37:34.526Z,82.86
2022-08-17T06:40:49.371Z,82.27
2022-08-17T06:44:00.798Z,82.44
2022-08-17T06:47:12.555Z,82.50
2022-08-17T06:50:27.417Z,82.54
2022-08-17T06:53:47.778Z,81.70
2022-08-17T06:56:59.581Z,82.73
2022-08-17T07:00:24.638Z,82.88
2022-08-17T07:03:54.603Z,83.03
2022-08-17T07:07:23.703Z,82.72
2022-08-17T07:10:26.522Z,83.00
2022-08-17T07:13:38.740Z,83.10
2022-08-17T07:16:46.428Z,82.28
2022-08-17T07:19:49.823Z,82.31
2022-08-17T07:23:15.774Z,82.67
2022-08-17T07:26:17.527Z,82.25
2022-08-17T07:29:19.946Z,82.66
2022-08-17T07:32:26.393Z,82.80
2022-08-17T07:35:44.016Z,83.17
2022-08-17T07:38:57.642Z,82.57
2022-08-17T07:42:04.229Z,82.72
2022-08-17T07:45:27.951Z,82.47
2022-08-17T07:48:29.810Z,82.38
2022-08-17T07:51:36.529Z,82.44
2022-08-17T07:54:41.339Z,81.78
2022-08-17T07:57:43.078Z,81.73
2022-08-17T08:00:45.760Z,82.12
2022-08-17T08:03:49.383Z,80.84
2022-08-17T08:06:57.751Z,79.25
2022-08-17T08:10:00.911Z,79.08
2022-08-17T08:13:12.280Z,78.18
2022-08-17T08:16:29.275Z,77.03
2022-08-17T08:19:31.926Z,74.65
2022-08-17T08:22:46.084Z,74.81
2022-08-17T08:25:53.588Z,73.35
2022-08-17T08:29:28.376Z,73.79
2022-08-17T08:32:48.599Z,72.56
2022-08-17T08:36:02.832Z,70.71
2022-08-17T08:39:13.669Z,71.92
2022-08-17T08:42:21.512Z,69.67
2022-08-17T08:45:31.928Z,70.38
2022-08-17T08:49:12.026Z,71.21
2022-08-17T08:52:53.400Z,70.85
2022-08-17T08:56:00.149Z,70.08
2022-08-17T08:59:23.673Z,69.19
2022-08-17T09:03:06.244Z,68.07
2022-08-17T09:06:32.175Z,67.03
2022-08-17T09:09:50.259Z,67.21
2022-08-17T09:12:55.455Z,62.95
2022-08-17T09:16:06.196Z,60.62
2022-08-17T09:19:22.606Z,60.70
2022-08-17T09:22:31.618Z,60.56
2022-08-17T09:25:49.852Z,60.03
2022-08-17T09:28:53.876Z,60.06
2022-08-17T09:31:58.474Z,59.75
2022-08-17T09:35:36.678Z,59.85
2022-08-17T09:38:48.035Z,60.70
2022-08-17T09:42:06.788Z,59.77
2022-08-17T09:45:23.630Z,54.44
2022-08-17T09:48:30.299Z,57.08
2022-08-17T09:51:36.851Z,58.60
2022-08-17T09:54:40.879Z,56.62
2022-08-17T09:57:59.971Z,58.79
2022-08-17T10:01:29.452Z,58.05
2022-08-17T10:04:43.314Z,58.18
2022-08-17T10:07:59.927Z,56.92
2022-08-17T10:11:15.479Z,55.96
2022-08-17T10:14:43.796Z,56.19
2022-08-17T10:17:59.811Z,52.52
2022-08-17T10:21:31.172Z,52.26
2022-08-17T10:25:21.386Z,52.28
2022-08-17T10:28:28.922Z,51.22
2022-08-17T10:31:35.882Z,51.65
2022-08-17T10:34:44.293Z,52.11
2022-08-17T10:37:59.340Z,52.03
2022-08-17T10:41:28.864Z,51.56
2022-08-17T10:44:47.477Z,53.23
2022-08-17T10:48:04.305Z,50.90
2022-08-17T10:51:12.888Z,51.64
2022-08-17T10:54:46.790Z,50.56
2022-08-17T10:57:50.505Z,50.03
2022-08-17T11:00:53.378Z,51.09
2022-08-17T11:03:57.312Z,52.05
2022-08-17T11:07:02.264Z,51.96
2022-08-17T11:10:33.584Z,49.92
2022-08-17T11:14:04.684Z,49.48
2022-08-17T11:17:18.937Z,49.59
2022-08-17T11:20:24.006Z,49.30
2022-08-17T11:23:48.416Z,50.63
2022-08-17T11:27:14.326Z,52.46
2022-08-17T11:30:51.835Z,51.50
2022-08-17T11:34:00.856Z,49.37
2022-08-17T11:37:24.460Z,48.64
2022-08-17T11:40:46.494Z,50.44
2022-08-17T11:44:20.844Z,49.63
2022-08-17T11:48:23.628Z,48.72
2022-08-17T11:51:36.780Z,48.22
2022-08-17T11:55:12.398Z,45.88
2022-08-17T11:58:30.186Z,46.15
2022-08-17T12:01:51.679Z,45.84
2022-08-17T12:05:12.498Z,44.96
2022-08-17T12:08:21.609Z,44.37
2022-08-17T12:12:11.202Z,44.93
2022-08-17T12:15:11.543Z,44.23
2022-08-17T12:18:42.357Z,42.83
2022-08-17T12:21:53.837Z,43.35
2022-08-17T12:25:19.303Z,42.51
2022-08-17T12:28:30.027Z,42.63
2022-08-17T12:31:36.338Z,42.10
2022-08-17T12:34:43.328Z,41.28
2022-08-17T12:37:47.530Z,41.09
2022-08-17T12:40:54.724Z,42.00
2022-08-17T12:44:23.302Z,43.04
2022-08-17T12:47:25.926Z,42.63
2022-08-17T12:50:32.231Z,42.21
2022-08-17T12:53:36.707Z,41.58
2022-08-17T12:56:38.453Z,42.33
2022-08-17T12:59:41.493Z,41.87
2022-08-17T13:03:03.435Z,40.53
2022-08-17T13:06:09.550Z,40.77
2022-08-17T13:09:35.715Z,41.18
2022-08-17T13:12:42.195Z,40.97
2022-08-17T13:15:59.471Z,40.16
2022-08-17T13:19:10.602Z,40.07
2022-08-17T13:22:13.993Z,39.44
2022-08-17T13:25:16.744Z,38.29
2022-08-17T13:28:30.773Z,39.91
2022-08-17T13:31:52.464Z,37.88
2022-08-17T13:35:15.208Z,37.23
2022-08-17T13:38:45.894Z,37.11
2022-08-17T13:41:49.180Z,36.52
2022-08-17T13:44:51.022Z,34.88
2022-08-17T13:48:10.921Z,35.36
2022-08-17T13:51:23.184Z,35.03
2022-08-17T13:54:27.430Z,35.66
2022-08-17T13:57:29.196Z,35.29
2022-08-17T14:00:36.448Z,34.38
2022-08-17T14:03:38.232Z,35.03
2022-08-17T14:06:52.848Z,34.97
2022-08-17T14:10:06.193Z,34.16
2022-08-17T14:13:08.315Z,33.95
2022-08-17T14:16:10.020Z,34.56
2022-08-17T14:19:13.244Z,35.10
2022-08-17T14:22:19.714Z,33.60
2022-08-17T14:25:27.530Z,33.65
2022-08-17T14:28:29.251Z,34.09
2022-08-17T14:31:35.363Z,34.09
2022-08-17T14:34:39.052Z,33.02
2022-08-17T14:37:40.751Z,33.75
2022-08-17T14:40:43.042Z,34.65
2022-08-17T14:43:46.299Z,34.77
2022-08-17T14:46:50.579Z,36.93
2022-08-17T14:49:52.982Z,36.28
2022-08-17T14:52:57.994Z,38.50
2022-08-17T14:56:01.782Z,36.90
2022-08-17T14:59:03.618Z,35.88
2022-08-17T15:02:05.519Z,35.71
2022-08-17T15:05:07.826Z,33.71
2022-08-17T15:08:09.578Z,33.67
2022-08-17T15:11:14.273Z,34.86
2022-08-17T15:14:16.442Z,35.76
2022-08-17T15:17:18.197Z,35.25
2022-08-17T15:20:23.892Z,34.80
2022-08-17T15:23:27.014Z,36.05
2022-08-17T15:26:28.767Z,34.28
2022-08-17T15:29:30.535Z,35.11
2022-08-17T15:32:34.935Z,34.47
2022-08-17T15:35:37.429Z,33.97
2022-08-17T15:38:41.970Z,34.20
2022-08-17T15:41:47.331Z,33.57
2022-08-17T15:45:06.091Z,35.34
2022-08-17T15:48:08.949Z,34.26
2022-08-17T15:51:15.039Z,32.98
2022-08-17T15:54:19.310Z,32.27
2022-08-17T15:57:25.704Z,33.14
2022-08-17T16:00:29.298Z,35.93
2022-08-17T16:04:01.182Z,32.51
2022-08-17T16:06:53.703Z,32.23
2022-08-17T16:09:55.666Z,31.59
2022-08-17T16:12:58.704Z,33.96
2022-08-17T16:16:00.383Z,32.68
2022-08-17T16:19:02.073Z,31.65
2022-08-17T16:22:05.938Z,32.43
2022-08-17T16:25:11.305Z,31.79
2022-08-17T16:28:14.782Z,30.31
2022-08-17T16:31:16.668Z,30.86
2022-08-17T16:34:19.102Z,31.84
2022-08-17T16:37:20.865Z,32.12
2022-08-17T16:40:26.020Z,32.62
2022-08-17T16:43:29.283Z,31.52
2022-08-17T16:46:31.720Z,31.06
2022-08-17T16:49:37.396Z,32.06
2022-08-17T16:52:40.554Z,32.09
2022-08-17T16:55:42.766Z,32.18
2022-08-17T16:58:44.922Z,31.95
2022-08-17T17:01:47.866Z,31.79
2022-08-17T17:05:19.402Z,31.76
2022-08-17T17:08:26.826Z,32.77
2022-08-17T17:11:50.925Z,31.98
2022-08-17T17:14:53.417Z,31.80
2022-08-17T17:17:59.886Z,32.83
2022-08-17T17:21:13.461Z,34.54
2022-08-17T17:24:30.354Z,35.21
2022-08-17T17:27:47.580Z,35.38
2022-08-17T17:31:08.293Z,36.57
2022-08-17T17:34:13.758Z,38.57
2022-08-17T17:37:26.396Z,38.52
2022-08-17T17:40:40.920Z,39.36
2022-08-17T17:43:43.018Z,40.64
2022-08-17T17:46:49.479Z,41.01
2022-08-17T17:49:51.345Z,41.84
2022-08-17T17:52:59.545Z,42.06
2022-08-17T17:56:18.827Z,41.43
2022-08-17T17:59:49.758Z,41.23
2022-08-17T18:03:15.723Z,42.13
2022-08-17T18:06:32.175Z,43.50
2022-08-17T18:09:53.796Z,45.82
2022-08-17T18:13:08.702Z,47.68
2022-08-17T18:16:12.856Z,50.30
2022-08-17T18:19:19.947Z,52.39
2022-08-17T18:22:22.467Z,53.87
2022-08-17T18:25:44.515Z,54.49
2022-08-17T18:28:46.113Z,54.69
2022-08-17T18:31:47.988Z,54.16
2022-08-17T18:34:51.516Z,54.64
2022-08-17T18:38:42.029Z,54.32
2022-08-17T18:41:47.166Z,55.85
2022-08-17T18:44:54.311Z,56.75
2022-08-17T18:47:57.870Z,57.13
2022-08-17T18:51:41.007Z,58.02
2022-08-17T18:55:08.545Z,58.31
2022-08-17T18:58:16.620Z,59.29
2022-08-17T19:01:20.947Z,59.83
2022-08-17T19:04:37.054Z,60.38
2022-08-17T19:07:40.137Z,61.49
2022-08-17T19:10:49.475Z,62.82
2022-08-17T19:13:58.563Z,62.96
2022-08-17T19:17:12.296Z,64.09
2022-08-17T19:20:26.904Z,64.16
2022-08-17T19:23:37.554Z,65.16
2022-08-17T19:26:50.598Z,65.26
2022-08-17T19:30:01.632Z,65.99
2022-08-17T19:33:05.874Z,66.56
2022-08-17T19:36:22.008Z,66.76
2022-08-17T19:39:38.713Z,67.91
2022-08-17T19:42:55.807Z,67.94
2022-08-17T19:46:12.309Z,67.79
2022-08-17T19:49:33.181Z,67.58
2022-08-17T19:52:46.525Z,72.05
2022-08-17T19:56:08.596Z,70.62
2022-08-17T19:59:21.414Z,70.52
2022-08-17T20:02:47.488Z,72.47
2022-08-17T20:06:13.750Z,72.47
2022-08-17T20:09:20.712Z,69.15
2022-08-17T20:12:26.886Z,69.13
2022-08-17T20:15:31.425Z,70.59
2022-08-17T20:18:54.822Z,70.45
2022-08-17T20:22:01.067Z,70.92
2022-08-17T20:25:30.360Z,70.50
2022-08-17T20:28:35.576Z,71.38
2022-08-17T20:31:55.686Z,71.16
2022-08-17T20:35:05.415Z,71.53
2022-08-17T20:38:13.246Z,72.77
2022-08-17T20:41:22.773Z,72.66
2022-08-17T20:44:36.899Z,72.96
2022-08-17T20:48:01.164Z,73.01
2022-08-17T20:51:18.056Z,73.03
2022-08-17T20:54:19.744Z,73.19
2022-08-17T20:57:36.715Z,73.62
2022-08-17T21:00:40.433Z,74.37
2022-08-17T21:03:51.261Z,73.79
2022-08-17T21:07:41.055Z,74.08
2022-08-17T21:10:47.079Z,74.03
2022-08-17T21:14:31.115Z,74.44
2022-08-17T21:18:12.058Z,74.14
2022-08-17T21:21:25.986Z,75.06
2022-08-17T21:24:35.815Z,75.52
2022-08-17T21:27:46.083Z,75.98
2022-08-17T21:30:54.104Z,75.79
2022-08-17T21:34:15.425Z,75.58
2022-08-17T21:37:19.971Z,75.39
2022-08-17T21:40:27.585Z,74.46
2022-08-17T21:43:32.761Z,75.63
2022-08-17T21:46:38.555Z,75.23
2022-08-17T21:49:41.642Z,75.04
2022-08-17T21:52:43.678Z,75.34
2022-08-17T21:55:48.716Z,75.48
2022-08-17T21:59:08.153Z,75.25
2022-08-17T22:02:20.353Z,74.50
2022-08-17T22:05:36.243Z,75.15
2022-08-17T22:08:37.908Z,75.50
2022-08-17T22:11:56.725Z,76.25
2022-08-17T22:15:00.891Z,77.20
2022-08-17T22:18:05.880Z,76.63
2022-08-17T22:21:10.763Z,77.81
2022-08-17T22:24:21.731Z,78.13
2022-08-17T22:27:45.487Z,77.54
2022-08-17T22:31:14.963Z,77.69
2022-08-17T22:34:17.379Z,78.07
2022-08-17T22:37:20.874Z,77.76
2022-08-17T22:40:34.469Z,77.43
2022-08-17T22:43:38.253Z,77.68
2022-08-17T22:47:11.124Z,77.13
2022-08-17T22:50:25.486Z,76.78
2022-08-17T22:54:02.456Z,76.56
2022-08-17T22:57:24.233Z,76.39
2022-08-17T23:00:42.572Z,76.55
2022-08-17T23:03:58.904Z,76.02
2022-08-17T23:07:00.584Z,76.76
2022-08-17T23:10:06.380Z,76.89
2022-08-17T23:13:11.903Z,76.53
2022-08-17T23:16:14.920Z,76.24
2022-08-17T23:19:20.952Z,75.40
2022-08-17T23:22:23.019Z,75.77
2022-08-17T23:25:28.055Z,75.85
2022-08-17T23:28:29.804Z,76.43
2022-08-17T23:31:38.563Z,75.55
2022-08-17T23:34:41.293Z,76.50
2022-08-17T23:37:42.950Z,75.87
2022-08-17T23:40:44.695Z,76.63
2022-08-17T23:43:48.854Z,77.06
2022-08-17T23:46:51.878Z,77.26
2022-08-17T23:49:54.102Z,77.34
2022-08-17T23:52:56.648Z,77.42
2022-08-17T23:56:09.243Z,77.94
2022-08-17T23:59:13.624Z,77.63
